Time;durP1;ratioP1;P1;durP2;ratioP2;P2;SDS_P1;SDS_P2;PMS_P1;PMS_P2;Temp;Humidity;BMP_temperature;BMP_pressure;BME280_temperature;BME280_humidity;BME280_pressure;Samples;Min_cycle;Max_cycle;Signal;HPM_P1;HPM_P2
2023/05/23 00:00:54;;;;;;;53.53;32.90;;;;;;;;;;6163334;23;20456;-87
2023/05/23 00:03:21;;;;;;;48.92;37.65;;;;;;;;;;6163980;23;20038;-86
2023/05/23 00:05:48;;;;;;;53.67;37.00;;;;;;;;;;6137903;23;20043;-86
2023/05/23 00:08:15;;;;;;;54.88;37.25;;;;;;;;;;6162229;23;20017;-86
2023/05/23 00:10:41;;;;;;;53.08;38.95;;;;;;;;;;6138974;23;20013;-88
2023/05/23 00:13:11;;;;;;;54.08;36.53;;;;;;;;;;6162833;23;20448;-87
2023/05/23 00:15:40;;;;;;;48.60;35.97;;;;;;;;;;6163540;23;20064;-87
2023/05/23 00:18:07;;;;;;;55.95;34.88;;;;;;;;;;6136870;23;20021;-87
2023/05/23 00:20:35;;;;;;;46.55;35.83;;;;;;;;;;6162633;23;20014;-88
2023/05/23 00:23:02;;;;;;;45.88;35.72;;;;;;;;;;6138647;23;20009;-87
2023/05/23 00:25:33;;;;;;;53.05;37.97;;;;;;;;;;6161247;23;20579;-86
2023/05/23 00:28:02;;;;;;;50.90;37.72;;;;;;;;;;6162701;23;20041;-86
2023/05/23 00:30:32;;;;;;;51.83;34.92;;;;;;;;;;6189341;23;20420;-87
2023/05/23 00:32:59;;;;;;;48.22;34.92;;;;;;;;;;6162443;23;20017;-86
2023/05/23 00:35:25;;;;;;;51.20;33.25;;;;;;;;;;6163075;23;20016;-87
2023/05/23 00:37:51;;;;;;;45.47;37.88;;;;;;;;;;6137954;23;20288;-86
2023/05/23 00:40:17;;;;;;;48.88;34.22;;;;;;;;;;6162822;23;20114;-87
2023/05/23 00:42:44;;;;;;;43.42;31.08;;;;;;;;;;6161633;23;20107;-87
2023/05/23 00:45:11;;;;;;;40.22;33.83;;;;;;;;;;6188558;23;20016;-84
2023/05/23 00:47:38;;;;;;;40.65;31.50;;;;;;;;;;6161016;23;20079;-85
2023/05/23 00:50:04;;;;;;;39.40;32.38;;;;;;;;;;6162796;23;20024;-86
2023/05/23 00:52:30;;;;;;;43.33;30.95;;;;;;;;;;6160396;23;20071;-86
2023/05/23 00:54:56;;;;;;;38.28;31.27;;;;;;;;;;6137313;23;20017;-85
2023/05/23 00:57:22;;;;;;;38.15;31.08;;;;;;;;;;6161951;23;20076;-84
2023/05/23 00:59:48;;;;;;;38.83;29.52;;;;;;;;;;6160363;23;20044;-86
2023/05/23 01:02:14;;;;;;;37.80;29.10;;;;;;;;;;6135730;23;20013;-86
2023/05/23 01:04:41;;;;;;;43.42;30.10;;;;;;;;;;6161307;23;20013;-86
2023/05/23 01:07:09;;;;;;;38.85;30.55;;;;;;;;;;6161083;23;20021;-85
2023/05/23 01:09:35;;;;;;;43.15;32.10;;;;;;;;;;6137802;23;20020;-87
2023/05/23 01:12:10;;;;;;;39.00;31.52;;;;;;;;;;6162872;23;20017;-86
2023/05/23 01:15:07;;;;;;;42.20;31.13;;;;;;;;;;6136614;23;20100;-86
2023/05/23 01:17:41;;;;;;;40.60;31.10;;;;;;;;;;6091274;23;20102;-86
2023/05/23 01:20:19;;;;;;;40.38;30.33;;;;;;;;;;6128097;23;20479;-86
2023/05/23 01:22:48;;;;;;;35.58;28.08;;;;;;;;;;6131201;23;20025;-87
2023/05/23 01:25:17;;;;;;;34.88;26.20;;;;;;;;;;6129727;23;20345;-86
2023/05/23 01:27:52;;;;;;;32.30;24.92;;;;;;;;;;6104165;23;20013;-86
2023/05/23 01:30:19;;;;;;;37.83;26.38;;;;;;;;;;6129770;23;20024;-85
2023/05/23 01:32:46;;;;;;;34.90;27.13;;;;;;;;;;6129797;23;20025;-87
2023/05/23 01:35:12;;;;;;;34.30;24.20;;;;;;;;;;6103857;23;20021;-85
2023/05/23 01:37:38;;;;;;;32.40;22.92;;;;;;;;;;6129186;23;20014;-85
2023/05/23 01:40:04;;;;;;;26.95;22.52;;;;;;;;;;6130129;23;20089;-84
2023/05/23 01:42:30;;;;;;;29.25;22.77;;;;;;;;;;6129156;23;20342;-85
2023/05/23 01:44:58;;;;;;;28.13;20.63;;;;;;;;;;6104421;23;20014;-86
2023/05/23 01:47:24;;;;;;;27.35;21.45;;;;;;;;;;6128510;23;20014;-85
2023/05/23 01:49:51;;;;;;;32.22;21.35;;;;;;;;;;6127899;23;20014;-86
2023/05/23 01:52:18;;;;;;;27.88;22.63;;;;;;;;;;6129951;23;20016;-86
2023/05/23 01:54:47;;;;;;;29.67;22.30;;;;;;;;;;6128893;23;20014;-85
2023/05/23 01:57:13;;;;;;;34.28;23.45;;;;;;;;;;6127786;23;20076;-86
2023/05/23 01:59:39;;;;;;;33.42;22.95;;;;;;;;;;6129275;23;20010;-86
2023/05/23 02:02:06;;;;;;;35.05;21.80;;;;;;;;;;6103114;23;20010;-87
2023/05/23 02:04:31;;;;;;;34.95;24.95;;;;;;;;;;6104244;23;20017;-85
2023/05/23 02:06:58;;;;;;;30.90;23.73;;;;;;;;;;6105428;23;20322;-85
2023/05/23 02:09:24;;;;;;;35.95;24.23;;;;;;;;;;6130701;23;20204;-86
2023/05/23 02:11:50;;;;;;;35.20;21.95;;;;;;;;;;6129465;23;20518;-86
2023/05/23 02:14:17;;;;;;;31.73;21.92;;;;;;;;;;6104710;23;20017;-86
2023/05/23 02:16:43;;;;;;;37.15;26.60;;;;;;;;;;6118200;23;20037;-85
2023/05/23 02:19:09;;;;;;;34.33;22.25;;;;;;;;;;6157776;23;20018;-86
2023/05/23 02:21:35;;;;;;;37.63;22.45;;;;;;;;;;6158480;23;20086;-85
2023/05/23 02:24:01;;;;;;;39.13;23.88;;;;;;;;;;6156906;23;20020;-88
2023/05/23 02:26:27;;;;;;;41.40;22.02;;;;;;;;;;6158054;23;20024;-86
2023/05/23 02:28:53;;;;;;;34.05;21.35;;;;;;;;;;6157676;23;20025;-86
2023/05/23 02:31:20;;;;;;;36.25;20.17;;;;;;;;;;6157890;23;20010;-87
2023/05/23 02:33:46;;;;;;;33.65;20.35;;;;;;;;;;6133019;23;20014;-85
2023/05/23 02:36:12;;;;;;;35.33;23.00;;;;;;;;;;6132370;23;20029;-85
2023/05/23 02:38:38;;;;;;;34.17;19.92;;;;;;;;;;6132536;23;20064;-85
2023/05/23 02:41:04;;;;;;;33.28;16.63;;;;;;;;;;6157428;23;20012;-87
2023/05/23 02:43:30;;;;;;;36.08;18.08;;;;;;;;;;6157203;23;20013;-85
2023/05/23 02:45:57;;;;;;;32.63;17.38;;;;;;;;;;6156801;23;20326;-85
2023/05/23 02:48:22;;;;;;;31.73;16.23;;;;;;;;;;6157907;23;20018;-85
2023/05/23 02:50:48;;;;;;;32.97;20.35;;;;;;;;;;6155770;23;20072;-85
2023/05/23 02:53:15;;;;;;;23.25;14.20;;;;;;;;;;6156844;23;20013;-84
2023/05/23 02:55:41;;;;;;;23.25;12.93;;;;;;;;;;6131393;23;20018;-85
2023/05/23 02:58:07;;;;;;;25.40;14.88;;;;;;;;;;6156469;23;20492;-85
2023/05/23 03:00:34;;;;;;;24.27;14.25;;;;;;;;;;6158053;23;20021;-84
2023/05/23 03:03:00;;;;;;;27.52;14.27;;;;;;;;;;6129906;23;20076;-85
2023/05/23 03:05:26;;;;;;;29.27;17.35;;;;;;;;;;6156544;23;20017;-84
2023/05/23 03:07:53;;;;;;;37.15;19.40;;;;;;;;;;6155911;23;20040;-84
2023/05/23 03:10:19;;;;;;;36.67;15.75;;;;;;;;;;6155900;23;20023;-84
2023/05/23 03:12:46;;;;;;;30.70;14.93;;;;;;;;;;6155622;23;20017;-84
2023/05/23 03:15:12;;;;;;;28.15;16.13;;;;;;;;;;6131373;23;20017;-84
2023/05/23 03:17:38;;;;;;;36.25;15.20;;;;;;;;;;6180888;23;20401;-85
2023/05/23 03:20:06;;;;;;;32.55;14.77;;;;;;;;;;6160157;23;20083;-83
2023/05/23 03:22:32;;;;;;;34.03;15.52;;;;;;;;;;6187681;23;20019;-84
2023/05/23 03:24:58;;;;;;;30.15;14.75;;;;;;;;;;6159610;23;20044;-83
2023/05/23 03:27:24;;;;;;;30.92;14.60;;;;;;;;;;6159000;23;20015;-84
2023/05/23 03:29:50;;;;;;;35.25;16.38;;;;;;;;;;6160728;23;20010;-84
2023/05/23 03:32:16;;;;;;;37.97;15.85;;;;;;;;;;6159939;23;20017;-84
2023/05/23 03:34:42;;;;;;;35.45;15.85;;;;;;;;;;6186484;23;20080;-85
2023/05/23 03:37:08;;;;;;;31.23;16.02;;;;;;;;;;6159461;23;20024;-83
2023/05/23 03:39:34;;;;;;;39.78;15.63;;;;;;;;;;6135798;23;20017;-84
2023/05/23 03:42:00;;;;;;;37.17;14.88;;;;;;;;;;6159851;23;20347;-85
2023/05/23 03:44:26;;;;;;;35.10;15.13;;;;;;;;;;6136496;23;20013;-84
2023/05/23 03:46:52;;;;;;;32.72;16.23;;;;;;;;;;6161206;23;20017;-84
2023/05/23 03:49:18;;;;;;;32.05;15.32;;;;;;;;;;6134792;23;20459;-85
2023/05/23 03:51:44;;;;;;;37.00;13.60;;;;;;;;;;6186670;23;20016;-84
2023/05/23 03:54:10;;;;;;;33.33;13.13;;;;;;;;;;6186754;23;20017;-85
2023/05/23 03:56:36;;;;;;;26.17;12.73;;;;;;;;;;6136214;23;20356;-86
2023/05/23 03:59:02;;;;;;;26.35;12.50;;;;;;;;;;6160132;23;20016;-85
2023/05/23 04:01:28;;;;;;;22.58;16.15;;;;;;;;;;6186255;23;20009;-86
2023/05/23 04:03:54;;;;;;;27.73;13.63;;;;;;;;;;6159749;23;20447;-87
2023/05/23 04:06:21;;;;;;;30.30;14.07;;;;;;;;;;6186865;23;20019;-85
2023/05/23 04:08:47;;;;;;;24.33;10.63;;;;;;;;;;6160200;23;20016;-85
2023/05/23 04:11:13;;;;;;;25.73;11.32;;;;;;;;;;6159499;23;20048;-86
2023/05/23 04:13:39;;;;;;;30.20;13.65;;;;;;;;;;6135406;23;20028;-85
2023/05/23 04:16:05;;;;;;;24.77;12.38;;;;;;;;;;6160418;23;20028;-84
2023/05/23 04:18:32;;;;;;;26.63;12.48;;;;;;;;;;6159995;23;20028;-86
2023/05/23 04:20:58;;;;;;;24.23;12.40;;;;;;;;;;6187723;23;20017;-86
2023/05/23 04:23:24;;;;;;;29.67;12.57;;;;;;;;;;6160608;23;20017;-85
2023/05/23 04:25:51;;;;;;;25.58;10.73;;;;;;;;;;6160532;23;20013;-84
2023/05/23 04:28:17;;;;;;;24.40;11.80;;;;;;;;;;6159714;23;20044;-86
2023/05/23 04:30:44;;;;;;;25.77;12.18;;;;;;;;;;6160547;23;20092;-84
2023/05/23 04:33:10;;;;;;;28.63;11.70;;;;;;;;;;6160267;23;20013;-85
2023/05/23 04:35:39;;;;;;;24.65;10.73;;;;;;;;;;6186555;23;20029;-85
2023/05/23 04:38:06;;;;;;;25.85;11.77;;;;;;;;;;6160361;23;20092;-86
2023/05/23 04:40:32;;;;;;;23.75;10.32;;;;;;;;;;6161535;23;20020;-86
2023/05/23 04:42:58;;;;;;;21.88;10.23;;;;;;;;;;6160852;23;20092;-85
2023/05/23 04:45:25;;;;;;;27.80;11.32;;;;;;;;;;6161167;23;20025;-87
2023/05/23 04:47:53;;;;;;;25.52;11.13;;;;;;;;;;6188434;23;20087;-86
2023/05/23 04:50:21;;;;;;;28.38;10.38;;;;;;;;;;6163078;23;20028;-86
2023/05/23 04:52:47;;;;;;;25.52;9.57;;;;;;;;;;6136917;23;20013;-87
2023/05/23 04:55:13;;;;;;;22.38;9.70;;;;;;;;;;6163230;23;20067;-87
2023/05/23 04:57:39;;;;;;;21.70;9.25;;;;;;;;;;6167080;23;20013;-85
2023/05/23 05:00:09;;;;;;;24.63;10.27;;;;;;;;;;6140489;23;20013;-87
2023/05/23 05:02:35;;;;;;;19.75;10.50;;;;;;;;;;6167932;23;20057;-87
2023/05/23 05:05:01;;;;;;;28.15;11.90;;;;;;;;;;6163223;23;20020;-86
2023/05/23 05:07:28;;;;;;;25.75;12.77;;;;;;;;;;6167748;23;20013;-87
2023/05/23 05:09:54;;;;;;;26.90;12.38;;;;;;;;;;6142341;23;20020;-86
2023/05/23 05:12:20;;;;;;;32.28;14.00;;;;;;;;;;6167854;23;20061;-86
2023/05/23 05:14:46;;;;;;;36.00;16.48;;;;;;;;;;6195330;23;20075;-86
2023/05/23 05:17:12;;;;;;;29.60;14.88;;;;;;;;;;6192956;23;20483;-86
2023/05/23 05:19:38;;;;;;;31.92;13.82;;;;;;;;;;6169658;23;20028;-87
2023/05/23 05:22:04;;;;;;;28.65;14.52;;;;;;;;;;6194272;23;20116;-87
2023/05/23 05:24:31;;;;;;;32.05;15.73;;;;;;;;;;6166871;23;20053;-86
2023/05/23 05:26:57;;;;;;;33.42;13.52;;;;;;;;;;6192765;23;20067;-86
2023/05/23 05:29:24;;;;;;;29.17;14.23;;;;;;;;;;6166193;23;20009;-85
2023/05/23 05:31:50;;;;;;;34.45;16.17;;;;;;;;;;6166653;23;20421;-86
2023/05/23 05:34:17;;;;;;;29.27;15.45;;;;;;;;;;6168413;23;20021;-84
2023/05/23 05:36:46;;;;;;;38.50;15.82;;;;;;;;;;6144737;23;20023;-86
2023/05/23 05:39:13;;;;;;;32.83;14.95;;;;;;;;;;6167330;23;20047;-85
2023/05/23 05:41:42;;;;;;;31.08;17.63;;;;;;;;;;6167714;23;20013;-85
2023/05/23 05:44:08;;;;;;;25.80;13.00;;;;;;;;;;6142124;23;20013;-85
2023/05/23 05:46:34;;;;;;;27.73;13.52;;;;;;;;;;6139041;23;20020;-85
2023/05/23 05:49:00;;;;;;;23.52;14.10;;;;;;;;;;6192820;23;20013;-85
2023/05/23 05:51:26;;;;;;;22.88;15.10;;;;;;;;;;6143238;23;20345;-85
2023/05/23 05:53:52;;;;;;;26.42;16.00;;;;;;;;;;6190531;23;20084;-84
2023/05/23 05:56:18;;;;;;;32.95;17.95;;;;;;;;;;6188401;23;20336;-87
2023/05/23 05:58:44;;;;;;;33.28;21.67;;;;;;;;;;6157715;23;20024;-86
2023/05/23 06:01:13;;;;;;;32.42;25.75;;;;;;;;;;6157743;23;20063;-86
2023/05/23 06:03:40;;;;;;;36.40;25.00;;;;;;;;;;6133090;23;20013;-86
2023/05/23 06:06:07;;;;;;;31.67;28.50;;;;;;;;;;6157548;23;20013;-86
2023/05/23 06:08:33;;;;;;;31.83;26.65;;;;;;;;;;6132886;23;20024;-87
2023/05/23 06:10:59;;;;;;;35.00;26.90;;;;;;;;;;6157597;23;20005;-87
2023/05/23 06:13:25;;;;;;;30.80;26.02;;;;;;;;;;6132813;23;20463;-87
2023/05/23 06:15:51;;;;;;;27.40;24.58;;;;;;;;;;6157098;23;20068;-86
2023/05/23 06:18:17;;;;;;;27.80;25.15;;;;;;;;;;6184067;23;20028;-87
2023/05/23 06:20:43;;;;;;;27.40;23.90;;;;;;;;;;6183648;23;20009;-87
2023/05/23 06:23:09;;;;;;;28.67;25.38;;;;;;;;;;6132187;23;20012;-87
2023/05/23 06:25:38;;;;;;;27.88;23.50;;;;;;;;;;6157105;23;20021;-87
2023/05/23 06:28:04;;;;;;;27.52;24.30;;;;;;;;;;6157232;23;20017;-87
2023/05/23 06:30:30;;;;;;;37.70;34.58;;;;;;;;;;6184202;23;20088;-87
2023/05/23 06:32:56;;;;;;;31.00;28.02;;;;;;;;;;6132804;23;20021;-87
2023/05/23 06:35:22;;;;;;;34.00;31.15;;;;;;;;;;6132761;23;20016;-87
2023/05/23 06:37:48;;;;;;;35.03;31.52;;;;;;;;;;6156994;23;20293;-87
2023/05/23 06:40:14;;;;;;;23.48;18.90;;;;;;;;;;6157252;23;20017;-87
2023/05/23 06:42:40;;;;;;;30.67;27.85;;;;;;;;;;6183800;23;20013;-87
2023/05/23 06:45:07;;;;;;;30.83;27.77;;;;;;;;;;6183864;23;20047;-87
2023/05/23 06:47:33;;;;;;;32.25;28.55;;;;;;;;;;6157272;23;20474;-87
2023/05/23 06:49:59;;;;;;;39.03;29.58;;;;;;;;;;6183796;23;20013;-87
2023/05/23 06:52:25;;;;;;;36.42;25.40;;;;;;;;;;6183280;23;20012;-86
2023/05/23 06:54:51;;;;;;;26.30;23.33;;;;;;;;;;6156921;23;20010;-85
2023/05/23 06:57:17;;;;;;;32.70;19.17;;;;;;;;;;6132539;23;20017;-87
2023/05/23 06:59:43;;;;;;;26.63;14.10;;;;;;;;;;6132451;23;20406;-86
2023/05/23 07:02:09;;;;;;;37.15;21.83;;;;;;;;;;6157034;23;20056;-87
2023/05/23 07:04:35;;;;;;;25.05;8.32;;;;;;;;;;6156407;23;20021;-87
2023/05/23 07:07:01;;;;;;;29.45;18.25;;;;;;;;;;6132576;23;20120;-87
2023/05/23 07:09:27;;;;;;;34.03;20.08;;;;;;;;;;6156786;23;20021;-87
2023/05/23 07:11:53;;;;;;;26.75;20.13;;;;;;;;;;6132431;23;20088;-87
2023/05/23 07:14:19;;;;;;;32.28;28.88;;;;;;;;;;6183035;23;20023;-88
2023/05/23 07:16:45;;;;;;;31.30;20.75;;;;;;;;;;6182847;23;20068;-87
2023/05/23 07:19:11;;;;;;;34.25;23.55;;;;;;;;;;6130984;23;20021;-87
2023/05/23 07:21:37;;;;;;;39.63;30.15;;;;;;;;;;6156549;23;20009;-87
2023/05/23 07:24:03;;;;;;;34.58;29.92;;;;;;;;;;6183189;23;20092;-87
2023/05/23 07:26:29;;;;;;;30.25;26.85;;;;;;;;;;6132022;23;20023;-87
2023/05/23 07:28:55;;;;;;;34.28;27.15;;;;;;;;;;6156487;23;20024;-86
2023/05/23 07:31:21;;;;;;;37.85;28.13;;;;;;;;;;6132019;23;20017;-86
2023/05/23 07:33:47;;;;;;;30.65;26.02;;;;;;;;;;6156212;23;20017;-86
2023/05/23 07:36:13;;;;;;;35.08;25.63;;;;;;;;;;6156847;23;20009;-86
2023/05/23 07:38:39;;;;;;;30.23;20.58;;;;;;;;;;6156264;23;20020;-86
2023/05/23 07:41:05;;;;;;;31.90;27.92;;;;;;;;;;6131818;23;20009;-86
2023/05/23 07:43:31;;;;;;;32.88;21.50;;;;;;;;;;6131868;23;20471;-87
2023/05/23 07:45:57;;;;;;;30.15;19.42;;;;;;;;;;6131895;23;20013;-87
2023/05/23 07:48:25;;;;;;;25.35;16.23;;;;;;;;;;6156171;23;20419;-87
2023/05/23 07:50:53;;;;;;;34.72;29.67;;;;;;;;;;6183254;23;20024;-89
2023/05/23 07:53:20;;;;;;;29.55;16.63;;;;;;;;;;6132100;23;20009;-88
2023/05/23 07:55:46;;;;;;;26.98;19.05;;;;;;;;;;6182992;23;20024;-88
2023/05/23 07:58:12;;;;;;;28.85;19.02;;;;;;;;;;6132006;23;20401;-87
2023/05/23 08:00:40;;;;;;;26.38;15.63;;;;;;;;;;6131964;23;20064;-87
2023/05/23 08:03:06;;;;;;;26.08;18.02;;;;;;;;;;6182861;23;20092;-87
2023/05/23 08:05:32;;;;;;;26.13;8.02;;;;;;;;;;6156646;23;20131;-87
2023/05/23 08:07:58;;;;;;;25.33;6.82;;;;;;;;;;6156985;23;20045;-87
2023/05/23 08:10:27;;;;;;;26.52;7.28;;;;;;;;;;6156628;23;20147;-88
2023/05/23 08:12:53;;;;;;;25.77;7.28;;;;;;;;;;6156695;23;20009;-87
2023/05/23 08:15:19;;;;;;;21.58;8.75;;;;;;;;;;6131771;23;20017;-87
2023/05/23 08:17:45;;;;;;;24.63;6.85;;;;;;;;;;6131011;23;20429;-87
2023/05/23 08:20:11;;;;;;;29.80;6.97;;;;;;;;;;6156089;23;20071;-87
2023/05/23 08:22:37;;;;;;;19.60;6.32;;;;;;;;;;6156345;23;20040;-87
2023/05/23 08:25:05;;;;;;;25.10;9.05;;;;;;;;;;6132066;23;20083;-87
2023/05/23 08:27:31;;;;;;;23.52;11.50;;;;;;;;;;6183169;23;20089;-87
2023/05/23 08:29:57;;;;;;;24.13;9.95;;;;;;;;;;6156306;23;20048;-86
2023/05/23 08:32:23;;;;;;;23.65;12.40;;;;;;;;;;6155572;23;20020;-85
2023/05/23 08:34:49;;;;;;;20.35;10.73;;;;;;;;;;6155997;23;20039;-84
2023/05/23 08:37:15;;;;;;;22.50;11.35;;;;;;;;;;6183009;23;20088;-85
2023/05/23 08:39:41;;;;;;;26.73;10.68;;;;;;;;;;6131305;23;20087;-84
2023/05/23 08:42:07;;;;;;;29.80;11.20;;;;;;;;;;6183042;23;20013;-84
2023/05/23 08:44:33;;;;;;;18.83;9.07;;;;;;;;;;6156441;23;20332;-85
2023/05/23 08:47:04;;;;;;;26.48;9.68;;;;;;;;;;6182095;23;20013;-84
2023/05/23 08:49:31;;;;;;;21.90;8.60;;;;;;;;;;6156061;23;20084;-83
2023/05/23 08:52:01;;;;;;;22.88;10.18;;;;;;;;;;6155691;23;20059;-84
2023/05/23 08:54:28;;;;;;;28.85;10.35;;;;;;;;;;6155616;23;20021;-84
2023/05/23 08:56:54;;;;;;;25.95;9.95;;;;;;;;;;6182387;23;20084;-85
2023/05/23 08:59:21;;;;;;;23.85;9.88;;;;;;;;;;6156212;23;20036;-85
2023/05/23 09:01:47;;;;;;;18.35;7.40;;;;;;;;;;6182083;23;20019;-84
2023/05/23 09:04:14;;;;;;;19.90;6.80;;;;;;;;;;6155692;23;20039;-85
2023/05/23 09:06:40;;;;;;;24.00;5.90;;;;;;;;;;6182645;23;20017;-84
2023/05/23 09:09:06;;;;;;;20.80;10.73;;;;;;;;;;6131045;23;20136;-85
2023/05/23 09:11:35;;;;;;;17.85;6.38;;;;;;;;;;6155884;23;20025;-84
2023/05/23 09:14:03;;;;;;;30.63;23.73;;;;;;;;;;6182623;23;20019;-85
2023/05/23 09:16:33;;;;;;;23.85;12.95;;;;;;;;;;6150990;23;20015;-84
2023/05/23 09:18:59;;;;;;;42.15;34.08;;;;;;;;;;6126838;23;20051;-86
2023/05/23 09:21:25;;;;;;;21.65;6.88;;;;;;;;;;6126602;23;20021;-85
2023/05/23 09:23:51;;;;;;;22.02;6.53;;;;;;;;;;6153069;23;20009;-85
2023/05/23 09:26:17;;;;;;;20.73;7.80;;;;;;;;;;6152816;23;20413;-85
2023/05/23 09:28:44;;;;;;;26.42;11.27;;;;;;;;;;6151531;23;20094;-85
2023/05/23 09:31:10;;;;;;;21.08;10.63;;;;;;;;;;6152681;23;20084;-87
2023/05/23 09:33:37;;;;;;;22.60;11.38;;;;;;;;;;6151320;23;20022;-85
2023/05/23 09:36:04;;;;;;;22.95;11.18;;;;;;;;;;6151025;23;20024;-86
2023/05/23 09:38:30;;;;;;;25.70;15.40;;;;;;;;;;6151009;23;20017;-85
2023/05/23 09:40:59;;;;;;;19.20;7.47;;;;;;;;;;6152927;23;20021;-86
2023/05/23 09:43:25;;;;;;;21.52;8.57;;;;;;;;;;6154820;23;20332;-85
2023/05/23 09:45:54;;;;;;;17.45;5.07;;;;;;;;;;6154296;23;20048;-85
2023/05/23 09:48:28;;;;;;;18.70;8.15;;;;;;;;;;6153397;23;20017;-85
2023/05/23 09:50:54;;;;;;;15.00;5.25;;;;;;;;;;6153076;23;20017;-86
2023/05/23 09:53:21;;;;;;;20.25;6.85;;;;;;;;;;6152865;23;20408;-85
2023/05/23 09:55:49;;;;;;;19.50;5.85;;;;;;;;;;6152644;23;20461;-85
2023/05/23 09:58:17;;;;;;;17.95;5.55;;;;;;;;;;6153146;23;20064;-86
2023/05/23 10:00:43;;;;;;;23.85;5.85;;;;;;;;;;6152343;23;20102;-84
2023/05/23 10:03:13;;;;;;;19.67;8.10;;;;;;;;;;6152974;23;20022;-85
2023/05/23 10:05:39;;;;;;;21.70;6.43;;;;;;;;;;6152968;23;20025;-85
2023/05/23 10:08:28;;;;;;;21.25;6.63;;;;;;;;;;6152504;23;20393;-85
2023/05/23 10:10:57;;;;;;;16.42;5.78;;;;;;;;;;6128250;23;20013;-86
2023/05/23 10:13:27;;;;;;;17.50;6.53;;;;;;;;;;6152213;23;20014;-85
2023/05/23 10:16:02;;;;;;;20.40;6.78;;;;;;;;;;6155086;23;20021;-85
2023/05/23 10:18:29;;;;;;;19.58;10.43;;;;;;;;;;6157689;23;20457;-86
2023/05/23 10:20:57;;;;;;;40.33;31.80;;;;;;;;;;6184297;23;20015;-84
2023/05/23 10:23:23;;;;;;;23.80;17.33;;;;;;;;;;6183853;23;20013;-84
2023/05/23 10:25:50;;;;;;;43.35;39.85;;;;;;;;;;6184536;23;20021;-85
2023/05/23 10:28:16;;;;;;;22.67;19.15;;;;;;;;;;6156960;23;20021;-86
2023/05/23 10:30:43;;;;;;;19.02;9.68;;;;;;;;;;6157844;23;20055;-84
2023/05/23 10:33:11;;;;;;;17.27;11.80;;;;;;;;;;6157688;23;20044;-84
2023/05/23 10:35:41;;;;;;;21.58;18.08;;;;;;;;;;6184006;23;20017;-85
2023/05/23 10:38:16;;;;;;;21.58;9.25;;;;;;;;;;6157438;23;20097;-85
2023/05/23 10:40:57;;;;;;;16.17;6.10;;;;;;;;;;6184365;23;20021;-86
2023/05/23 10:43:30;;;;;;;18.60;8.02;;;;;;;;;;6132565;23;20020;-84
2023/05/23 10:45:56;;;;;;;34.60;31.38;;;;;;;;;;6157262;23;20020;-86
2023/05/23 10:48:32;;;;;;;31.70;28.45;;;;;;;;;;6157252;23;20019;-85
2023/05/23 10:51:08;;;;;;;27.75;24.92;;;;;;;;;;6132587;23;20066;-85
2023/05/23 10:53:53;;;;;;;43.95;34.45;;;;;;;;;;6156897;23;20068;-85
2023/05/23 10:56:23;;;;;;;37.72;34.05;;;;;;;;;;6132534;23;20073;-86
2023/05/23 10:58:57;;;;;;;18.08;10.18;;;;;;;;;;6183363;23;20013;-85
2023/05/23 11:01:24;;;;;;;19.05;8.02;;;;;;;;;;6157118;23;20025;-85
2023/05/23 11:03:51;;;;;;;22.38;8.52;;;;;;;;;;6157066;23;20084;-85
2023/05/23 11:06:37;;;;;;;26.88;22.45;;;;;;;;;;6157051;23;20020;-85
2023/05/23 11:09:09;;;;;;;26.35;23.55;;;;;;;;;;6156648;23;20013;-84
2023/05/23 11:11:53;;;;;;;18.50;16.50;;;;;;;;;;6155905;23;20044;-84
2023/05/23 11:14:20;;;;;;;68.72;63.30;;;;;;;;;;6131515;23;20086;-83
2023/05/23 11:16:47;;;;;;;78.07;73.00;;;;;;;;;;6131356;23;20013;-85
2023/05/23 11:19:20;;;;;;;149.63;140.18;;;;;;;;;;6156829;23;20020;-85
2023/05/23 11:21:51;;;;;;;199.13;186.65;;;;;;;;;;6131896;23;20013;-84
2023/05/23 11:24:17;;;;;;;192.20;180.55;;;;;;;;;;6156676;23;20016;-86
2023/05/23 11:26:53;;;;;;;188.40;176.65;;;;;;;;;;6156480;23;20017;-85
2023/05/23 11:29:20;;;;;;;79.03;73.75;;;;;;;;;;6183273;23;20333;-84
2023/05/23 11:31:46;;;;;;;116.18;108.78;;;;;;;;;;6132489;23;20059;-85
2023/05/23 11:34:12;;;;;;;121.97;113.95;;;;;;;;;;6183138;23;20021;-84
2023/05/23 11:36:39;;;;;;;139.43;130.70;;;;;;;;;;6156600;23;20017;-84
2023/05/23 11:39:05;;;;;;;122.10;114.22;;;;;;;;;;6157167;23;20019;-85
2023/05/23 11:41:32;;;;;;;93.70;86.95;;;;;;;;;;6182663;23;20448;-85
2023/05/23 11:44:00;;;;;;;39.28;35.65;;;;;;;;;;6132341;23;20017;-84
2023/05/23 11:46:26;;;;;;;21.08;15.38;;;;;;;;;;6156687;23;20020;-85
2023/05/23 11:48:52;;;;;;;21.83;7.95;;;;;;;;;;6156851;23;20119;-85
2023/05/23 11:51:21;;;;;;;18.08;5.60;;;;;;;;;;6131947;23;20486;-84
2023/05/23 11:53:47;;;;;;;21.10;7.90;;;;;;;;;;6132078;23;20012;-85
2023/05/23 11:56:14;;;;;;;23.92;15.88;;;;;;;;;;6131021;23;20019;-85
2023/05/23 11:58:41;;;;;;;28.38;22.73;;;;;;;;;;6131904;23;20521;-85
2023/05/23 12:01:11;;;;;;;23.42;14.40;;;;;;;;;;6156736;23;20017;-87
2023/05/23 12:03:47;;;;;;;26.38;8.57;;;;;;;;;;6156384;23;20437;-86
2023/05/23 12:06:20;;;;;;;20.45;6.55;;;;;;;;;;6156417;23;20017;-84
2023/05/23 12:08:47;;;;;;;19.10;7.82;;;;;;;;;;6156219;23;20516;-84
2023/05/23 12:11:13;;;;;;;23.45;17.15;;;;;;;;;;6182579;23;20360;-84
2023/05/23 12:13:41;;;;;;;31.10;28.00;;;;;;;;;;6156921;23;20052;-84
2023/05/23 12:16:07;;;;;;;53.33;49.22;;;;;;;;;;6182908;23;20021;-85
2023/05/23 12:18:34;;;;;;;74.28;69.20;;;;;;;;;;6156167;23;20017;-86
2023/05/23 12:21:07;;;;;;;114.65;107.20;;;;;;;;;;6156554;23;20009;-85
2023/05/23 12:23:34;;;;;;;136.98;128.38;;;;;;;;;;6183276;23;20016;-85
2023/05/23 12:26:01;;;;;;;176.38;165.13;;;;;;;;;;6131700;23;20482;-85
2023/05/23 12:28:35;;;;;;;133.52;124.95;;;;;;;;;;6156728;23;20044;-85
2023/05/23 12:31:13;;;;;;;173.95;163.40;;;;;;;;;;6131534;23;20017;-85
2023/05/23 12:33:40;;;;;;;170.00;159.60;;;;;;;;;;6131863;23;20071;-85
2023/05/23 12:36:06;;;;;;;155.90;146.18;;;;;;;;;;6131612;23;20019;-87
2023/05/23 12:38:36;;;;;;;169.75;159.43;;;;;;;;;;6156254;23;20051;-85
2023/05/23 12:41:15;;;;;;;159.50;149.65;;;;;;;;;;6131823;23;20010;-86
2023/05/23 12:43:48;;;;;;;130.95;122.90;;;;;;;;;;6156914;23;20071;-85
2023/05/23 12:46:14;;;;;;;156.45;147.35;;;;;;;;;;6131800;23;20092;-85
2023/05/23 12:48:40;;;;;;;134.60;126.30;;;;;;;;;;6156045;23;20017;-86
2023/05/23 12:51:06;;;;;;;151.02;141.07;;;;;;;;;;6156501;23;20395;-86
2023/05/23 12:53:32;;;;;;;101.22;94.50;;;;;;;;;;6155577;23;20366;-86
2023/05/23 12:55:59;;;;;;;59.22;54.60;;;;;;;;;;6156011;23;20187;-85
2023/05/23 12:58:25;;;;;;;90.95;84.68;;;;;;;;;;6131752;23;20292;-86
2023/05/23 13:00:51;;;;;;;128.07;119.40;;;;;;;;;;6156157;23;20496;-85
2023/05/23 13:03:17;;;;;;;174.05;163.55;;;;;;;;;;6155721;23;20091;-85
2023/05/23 13:05:43;;;;;;;173.70;163.25;;;;;;;;;;6155959;23;20028;-86
2023/05/23 13:08:11;;;;;;;185.38;173.85;;;;;;;;;;6155447;23;20526;-85
2023/05/23 13:10:37;;;;;;;153.90;144.43;;;;;;;;;;6131413;23;20021;-85
2023/05/23 13:13:03;;;;;;;176.63;165.77;;;;;;;;;;6182707;23;20020;-85
2023/05/23 13:15:29;;;;;;;161.60;151.32;;;;;;;;;;6182468;23;20009;-86
2023/05/23 13:17:55;;;;;;;165.07;154.55;;;;;;;;;;6183681;23;20017;-85
2023/05/23 13:20:21;;;;;;;167.93;157.40;;;;;;;;;;6184495;23;20021;-85
2023/05/23 13:22:48;;;;;;;230.50;216.05;;;;;;;;;;6183736;23;20013;-85
2023/05/23 13:25:14;;;;;;;238.73;223.82;;;;;;;;;;6133107;23;20290;-85
2023/05/23 13:27:41;;;;;;;243.27;228.05;;;;;;;;;;6157887;23;20081;-86
2023/05/23 13:30:07;;;;;;;201.57;189.38;;;;;;;;;;6157886;23;20090;-85
2023/05/23 13:32:33;;;;;;;206.68;193.82;;;;;;;;;;6157272;23;20052;-84
2023/05/23 13:35:09;;;;;;;;;;;;;;;;;;;;;
2023/05/23 13:37:36;;;;;;;140.15;131.88;;;;;;;;;;6184400;23;20176;-87
2023/05/23 13:40:03;;;;;;;149.35;140.23;;;;;;;;;;6184557;23;20088;-86
2023/05/23 13:42:29;;;;;;;158.13;148.65;;;;;;;;;;6158145;23;20013;-87
2023/05/23 13:44:55;;;;;;;174.13;163.45;;;;;;;;;;6158026;23;20333;-85
2023/05/23 13:47:22;;;;;;;116.05;108.80;;;;;;;;;;6132961;23;20013;-86
2023/05/23 13:49:48;;;;;;;148.50;139.38;;;;;;;;;;6157492;23;20017;-85
2023/05/23 13:52:14;;;;;;;117.10;109.82;;;;;;;;;;6157468;23;20012;-84
2023/05/23 13:54:40;;;;;;;95.65;89.65;;;;;;;;;;6157572;23;20116;-85
2023/05/23 13:57:06;;;;;;;59.35;54.35;;;;;;;;;;6157975;23;20025;-85
2023/05/23 13:59:32;;;;;;;55.60;51.28;;;;;;;;;;6184326;23;20020;-86
2023/05/23 14:01:58;;;;;;;88.88;82.75;;;;;;;;;;6133145;23;20009;-85
2023/05/23 14:04:25;;;;;;;103.75;97.57;;;;;;;;;;6133539;23;20108;-86
2023/05/23 14:06:51;;;;;;;127.30;119.93;;;;;;;;;;6132875;23;20289;-86
2023/05/23 14:09:17;;;;;;;141.90;133.20;;;;;;;;;;6157727;23;20090;-86
2023/05/23 14:11:43;;;;;;;165.52;155.57;;;;;;;;;;6132905;23;20185;-85
2023/05/23 14:14:09;;;;;;;219.05;205.65;;;;;;;;;;6157795;23;20017;-85
2023/05/23 14:16:35;;;;;;;582.85;541.60;;;;;;;;;;6157239;23;20016;-86